PWSweather.com
Personal Weather Stations
Station Observations
AS787
Cloppers Mill East, Germantown, MD 20874-2154

Cloppers Mill EastGermantown, MD 20874-2154

Lat: 39.1522, Lon: -77.2679

Elevation: 318

Station Type: 1-Wire

http://www.cloppermillweather.org/

High Low Average
Temperature 85.4°F29.7°C 68.2°F20.1°C 74.1°F23.4°C
Dew Point 75.7°F24.3°C 67.6°F19.8°C 71.0°F21.7°C
Winds 1.1 mph 1.8 kmh Calm Calm Calm SWCalm SW
Wind Gusts 4.0 mph6.4 kmh -- --
Humidity 99% 71% 91%
Pressure 29.95 in1014.2 mb 29.84 in1010.5 mb -
Precipitation 0.00 in0.0 mm - -
Hour Temp Dew Point Humidity Winds Wind Gusts Pressure Precip Precip Rate Daily Precip Total
12:21 AM 69.1°F20.6°C 68.5°F20.3°C 98% Calm Calm 1.0 mph1.6 kmh 29.95 in1014.2 mb 0.00 in0.0 mm 0.00 in0.0 mm 0.00 in0.0 mm
12:51 AM 69.1°F20.6°C 68.5°F20.3°C 98% Calm Calm -- 29.94 in1013.9 mb 0.00 in0.0 mm 0.00 in0.0 mm 0.00 in0.0 mm
01:21 AM 68.9°F20.5°C 68.3°F20.2°C 98% Calm Calm -- 29.94 in1013.9 mb 0.00 in0.0 mm 0.00 in0.0 mm 0.00 in0.0 mm
01:51 AM 69.0°F20.6°C 68.4°F20.2°C 98% Calm Calm -- 29.94 in1013.9 mb 0.00 in0.0 mm 0.00 in0.0 mm 0.00 in0.0 mm
02:21 AM 68.8°F20.4°C 68.2°F20.1°C 98% Calm Calm -- 29.93 in1013.5 mb 0.00 in0.0 mm 0.00 in0.0 mm 0.00 in0.0 mm
02:51 AM 68.8°F20.4°C 68.2°F20.1°C 98% Calm Calm -- 29.93 in1013.5 mb 0.00 in0.0 mm 0.00 in0.0 mm 0.00 in0.0 mm
03:21 AM 68.5°F20.3°C 67.9°F19.9°C 98% Calm Calm -- 29.93 in1013.5 mb 0.00 in0.0 mm 0.00 in0.0 mm 0.00 in0.0 mm
03:51 AM 68.5°F20.3°C 67.9°F19.9°C 98% Calm Calm -- 29.93 in1013.5 mb 0.00 in0.0 mm 0.00 in0.0 mm 0.00 in0.0 mm
04:21 AM 68.5°F20.3°C 67.9°F19.9°C 98% Calm Calm -- 29.93 in1013.5 mb 0.00 in0.0 mm 0.00 in0.0 mm 0.00 in0.0 mm
04:51 AM 68.5°F20.3°C 67.9°F19.9°C 98% Calm Calm -- 29.93 in1013.5 mb 0.01 in0.3 mm 0.02 in0.5 mm 0.01 in0.3 mm
05:21 AM 68.4°F20.2°C 67.8°F19.9°C 98% Calm Calm -- 29.93 in1013.5 mb 0.00 in0.0 mm 0.00 in0.0 mm 0.01 in0.3 mm
05:51 AM 68.3°F20.2°C 67.7°F19.8°C 98% Calm Calm -- 29.93 in1013.5 mb 0.00 in0.0 mm 0.00 in0.0 mm 0.01 in0.3 mm
06:21 AM 68.2°F20.1°C 67.6°F19.8°C 98% Calm Calm -- 29.94 in1013.9 mb 0.00 in0.0 mm 0.00 in0.0 mm 0.01 in0.3 mm
06:51 AM 68.6°F20.3°C 68.3°F20.2°C 99% Calm Calm -- 29.94 in1013.9 mb 0.00 in0.0 mm 0.00 in0.0 mm 0.01 in0.3 mm
07:21 AM 69.3°F20.7°C 69.0°F20.6°C 99% Calm Calm -- 29.93 in1013.5 mb 0.00 in0.0 mm 0.00 in0.0 mm 0.01 in0.3 mm
07:51 AM 69.6°F20.9°C 69.2°F20.7°C 99% Calm Calm -- 29.94 in1013.9 mb 0.00 in0.0 mm 0.00 in0.0 mm 0.01 in0.3 mm
08:21 AM 69.9°F21.1°C 69.3°F20.7°C 98% Calm Calm -- 29.94 in1013.9 mb 0.00 in0.0 mm 0.00 in0.0 mm 0.01 in0.3 mm
08:51 AM 70.3°F21.3°C 69.8°F21.0°C 98% Calm Calm -- 29.95 in1014.2 mb 0.00 in0.0 mm 0.00 in0.0 mm 0.01 in0.3 mm
09:21 AM 71.0°F21.7°C 70.4°F21.3°C 98% Calm Calm -- 29.95 in1014.2 mb 0.00 in0.0 mm 0.00 in0.0 mm 0.01 in0.3 mm
09:51 AM 71.5°F21.9°C 70.9°F21.6°C 98% Calm Calm -- 29.95 in1014.2 mb 0.00 in0.0 mm 0.00 in0.0 mm 0.01 in0.3 mm
10:21 AM 72.0°F22.2°C 71.2°F21.8°C 97% Calm Calm -- 29.94 in1013.9 mb 0.00 in0.0 mm 0.00 in0.0 mm 0.01 in0.3 mm
10:51 AM 73.0°F22.8°C 71.8°F22.1°C 96% Calm Calm -- 29.94 in1013.9 mb 0.00 in0.0 mm 0.00 in0.0 mm 0.01 in0.3 mm
11:21 AM 73.5°F23.1°C 71.9°F22.2°C 95% Calm Calm -- 29.93 in1013.5 mb 0.00 in0.0 mm 0.00 in0.0 mm 0.01 in0.3 mm
11:51 AM 74.8°F23.8°C 73.0°F22.8°C 94% Calm Calm -- 29.93 in1013.5 mb 0.00 in0.0 mm 0.00 in0.0 mm 0.01 in0.3 mm
12:21 PM 76.2°F24.6°C 73.7°F23.2°C 92% Calm Calm 3.0 mph4.8 kmh 29.92 in1013.2 mb 0.00 in0.0 mm 0.00 in0.0 mm 0.01 in0.3 mm
12:51 PM 81.2°F27.3°C 75.3°F24.1°C 82% Calm Calm -- 29.91 in1012.9 mb 0.00 in0.0 mm 0.00 in0.0 mm 0.01 in0.3 mm
01:21 PM 81.7°F27.6°C 75.1°F23.9°C 80% Calm Calm -- 29.90 in1012.5 mb 0.00 in0.0 mm 0.00 in0.0 mm 0.01 in0.3 mm
01:51 PM 83.5°F28.6°C 75.5°F24.2°C 77% 0.6 mph SW1.0 kmh SW 3.0 mph4.8 kmh 29.89 in1012.2 mb 0.00 in0.0 mm 0.00 in0.0 mm 0.01 in0.3 mm
02:21 PM 83.9°F28.8°C 75.7°F24.3°C 76% 0.5 mph SW0.8 kmh SW 2.0 mph3.2 kmh 29.89 in1012.2 mb 0.00 in0.0 mm 0.00 in0.0 mm 0.01 in0.3 mm
02:51 PM 84.6°F29.2°C 74.6°F23.7°C 71% 0.3 mph W0.5 kmh W 1.0 mph1.6 kmh 29.88 in1011.9 mb 0.00 in0.0 mm 0.00 in0.0 mm 0.01 in0.3 mm
03:21 PM 84.3°F29.1°C 74.5°F23.6°C 72% Calm Calm 1.0 mph1.6 kmh 29.86 in1011.2 mb 0.00 in0.0 mm 0.00 in0.0 mm 0.01 in0.3 mm
03:51 PM 83.4°F28.6°C 74.9°F23.8°C 75% Calm Calm -- 29.85 in1010.8 mb 0.00 in0.0 mm 0.00 in0.0 mm 0.01 in0.3 mm
04:21 PM 83.4°F28.6°C 75.6°F24.2°C 77% Calm Calm -- 29.85 in1010.8 mb 0.00 in0.0 mm 0.00 in0.0 mm 0.01 in0.3 mm
04:51 PM 85.4°F29.7°C 75.4°F24.1°C 72% Calm Calm 4.0 mph6.4 kmh 29.84 in1010.5 mb 0.00 in0.0 mm 0.00 in0.0 mm 0.01 in0.3 mm
05:21 PM 83.6°F28.7°C 74.0°F23.3°C 72% 1.1 mph W1.8 kmh W 3.0 mph4.8 kmh 29.84 in1010.5 mb 0.00 in0.0 mm 0.00 in0.0 mm 0.01 in0.3 mm
05:51 PM 83.4°F28.6°C 74.5°F23.6°C 74% Calm Calm -- 29.85 in1010.8 mb 0.00 in0.0 mm 0.00 in0.0 mm 0.01 in0.3 mm
06:21 PM 82.1°F27.8°C 74.0°F23.3°C 76% Calm Calm -- 29.85 in1010.8 mb 0.00 in0.0 mm 0.00 in0.0 mm 0.01 in0.3 mm
06:51 PM 74.4°F23.6°C 70.9°F21.6°C 89% 0.1 mph NNE0.2 kmh NNE 2.0 mph3.2 kmh 29.87 in1011.5 mb 0.44 in11.2 mm 0.88 in22.4 mm 0.45 in11.4 mm
07:21 PM 71.7°F22.1°C 69.9°F21.1°C 94% Calm Calm -- 29.88 in1011.9 mb 0.33 in8.4 mm 0.00 in0.0 mm 0.45 in11.4 mm
07:51 PM 71.3°F21.8°C 70.1°F21.2°C 96% Calm Calm -- 29.86 in1011.2 mb 0.39 in9.9 mm 0.12 in3.0 mm 0.51 in13.0 mm
09:51 PM 71.1°F21.7°C 70.2°F21.2°C 97% Calm Calm -- 29.88 in1011.9 mb 0.00 in0.0 mm 0.00 in0.0 mm 0.51 in13.0 mm
11:51 PM 69.7°F20.9°C 69.1°F20.6°C 98% Calm Calm -- 29.90 in1012.5 mb 0.00 in0.0 mm 0.00 in0.0 mm 0.51 in13.0 mm